createdAt,value
2022-09-13T00:00:05.300Z,75580.78
2022-09-13T00:02:33.720Z,75580.78
2022-09-13T00:05:01.445Z,75593.03
2022-09-13T00:07:29.214Z,75597.09
2022-09-13T00:09:58.342Z,75597.09
2022-09-13T00:12:26.176Z,75601.19
2022-09-13T00:14:53.924Z,75609.34
2022-09-13T00:17:22.980Z,75601.19
2022-09-13T00:19:50.751Z,75599.13
2022-09-13T00:22:18.532Z,75601.19
2022-09-13T00:24:46.313Z,75605.25
2022-09-13T00:27:15.405Z,75603.22
2022-09-13T00:29:43.171Z,75601.19
2022-09-13T00:32:10.975Z,75601.19
2022-09-13T00:34:38.792Z,75599.13
2022-09-13T00:37:06.616Z,75607.28
2022-09-13T00:39:34.398Z,75605.25
2022-09-13T00:42:02.175Z,75605.25
2022-09-13T00:44:58.497Z,75605.25
2022-09-13T00:47:36.830Z,75613.41
2022-09-13T00:50:12.838Z,75625.63
2022-09-13T00:52:46.700Z,75629.72
2022-09-13T00:55:19.805Z,75646.03
2022-09-13T00:57:48.099Z,75644.00
2022-09-13T01:00:19.651Z,75635.84
2022-09-13T01:02:52.608Z,75629.72
2022-09-13T01:05:24.844Z,75625.63
2022-09-13T01:07:52.989Z,75617.50
2022-09-13T01:10:23.634Z,75631.75
2022-09-13T01:12:56.016Z,75633.78
2022-09-13T01:15:25.228Z,75633.78
2022-09-13T01:17:54.157Z,75637.88
2022-09-13T01:20:26.798Z,75631.75
2022-09-13T01:23:34.904Z,75646.03
2022-09-13T01:26:35.020Z,75650.09
2022-09-13T01:29:22.971Z,75641.94
2022-09-13T01:32:01.330Z,75641.94
2022-09-13T01:34:40.729Z,75635.84
2022-09-13T01:37:39.811Z,75631.75
2022-09-13T01:40:21.720Z,75641.94
2022-09-13T01:43:10.237Z,75654.19
2022-09-13T01:45:46.788Z,75650.09
2022-09-13T01:48:20.700Z,75641.94
2022-09-13T01:51:00.330Z,75646.03
2022-09-13T01:53:38.045Z,75646.03
2022-09-13T01:56:13.092Z,75646.03
2022-09-13T01:58:46.739Z,75639.91
2022-09-13T02:01:19.369Z,75633.78
2022-09-13T02:03:55.827Z,75637.88
2022-09-13T02:06:28.249Z,75641.94
2022-09-13T02:09:00.974Z,75652.13
2022-09-13T02:11:29.794Z,75658.25
2022-09-13T02:14:00.864Z,75662.34
2022-09-13T02:16:32.621Z,75678.63
2022-09-13T02:19:08.405Z,75678.63
2022-09-13T02:21:40.666Z,75686.78
2022-09-13T02:24:13.089Z,75682.72
2022-09-13T02:26:45.599Z,75676.59
2022-09-13T02:29:17.894Z,75682.72
2022-09-13T02:31:50.344Z,75672.53
2022-09-13T02:34:24.145Z,75670.50
2022-09-13T02:36:55.750Z,75662.34
2022-09-13T02:39:27.210Z,75658.25
2022-09-13T02:41:59.973Z,75654.19
2022-09-13T02:44:34.151Z,75650.09
2022-09-13T02:47:16.989Z,75639.91
2022-09-13T02:49:54.669Z,75625.63
2022-09-13T02:52:34.562Z,75623.59
2022-09-13T02:55:11.095Z,75625.63
2022-09-13T02:57:41.799Z,75623.59
2022-09-13T03:00:10.812Z,75621.56
2022-09-13T03:02:40.878Z,75621.56
2022-09-13T03:05:10.448Z,75615.44
2022-09-13T03:07:38.273Z,75609.34
2022-09-13T03:10:10.150Z,75609.34
2022-09-13T03:13:05.546Z,75615.44
2022-09-13T03:15:48.296Z,75611.38
2022-09-13T03:18:31.256Z,75615.44
2022-09-13T03:21:12.913Z,75621.56
2022-09-13T03:23:54.381Z,75629.72
2022-09-13T03:26:32.187Z,75633.78
2022-09-13T03:29:15.009Z,75637.88
2022-09-13T03:31:51.312Z,75637.88
2022-09-13T03:34:30.789Z,75641.94
2022-09-13T03:37:07.605Z,75633.78
2022-09-13T03:39:42.874Z,75641.94
2022-09-13T03:42:16.012Z,75633.78
2022-09-13T03:44:49.883Z,75633.78
2022-09-13T03:47:19.664Z,75635.84
2022-09-13T03:49:47.845Z,75646.03
2022-09-13T03:52:16.976Z,75650.09
2022-09-13T03:54:44.836Z,75646.03
2022-09-13T03:57:15.216Z,75648.06
2022-09-13T03:59:46.969Z,75662.34
2022-09-13T04:02:16.135Z,75650.09
2022-09-13T04:04:45.118Z,75650.09
2022-09-13T04:07:14.719Z,75650.09
2022-09-13T04:09:44.201Z,75658.25
2022-09-13T04:12:11.936Z,75656.22
2022-09-13T04:14:39.673Z,75654.19
2022-09-13T04:17:07.675Z,75658.25
2022-09-13T04:19:35.456Z,75654.19
2022-09-13T04:22:04.267Z,75650.09
2022-09-13T04:24:32.553Z,75650.09
2022-09-13T04:27:02.927Z,75650.09
2022-09-13T04:29:31.786Z,75654.19
2022-09-13T04:32:00.454Z,75650.09
2022-09-13T04:34:28.382Z,75658.25
2022-09-13T04:36:56.181Z,75658.25
2022-09-13T04:39:24.026Z,75662.34
2022-09-13T04:41:55.169Z,75660.28
2022-09-13T04:44:24.568Z,75660.28
2022-09-13T04:46:52.611Z,75666.41
2022-09-13T04:49:21.941Z,75662.34
2022-09-13T04:51:49.935Z,75670.50
2022-09-13T04:54:17.925Z,75666.41
2022-09-13T04:56:46.298Z,75666.41
2022-09-13T04:59:14.839Z,75666.41
2022-09-13T05:01:44.123Z,75666.41
2022-09-13T05:04:12.093Z,75670.50
2022-09-13T05:06:40.079Z,75676.59
2022-09-13T05:09:07.981Z,75674.56
2022-09-13T05:11:35.745Z,75678.63
2022-09-13T05:14:04.081Z,75682.72
2022-09-13T05:16:33.904Z,75678.63
2022-09-13T05:19:03.473Z,75674.56
2022-09-13T05:21:31.997Z,75672.53
2022-09-13T05:24:00.076Z,75678.63
2022-09-13T05:26:31.433Z,75680.69
2022-09-13T05:28:59.830Z,75676.59
2022-09-13T05:31:30.628Z,75672.53
2022-09-13T05:33:59.887Z,75672.53
2022-09-13T05:36:29.600Z,75668.44
2022-09-13T05:39:25.935Z,75646.03
2022-09-13T05:41:46.290Z,75646.03
2022-09-13T05:44:14.346Z,75635.84
2022-09-13T05:46:43.162Z,75641.94
2022-09-13T05:49:13.581Z,75621.56
2022-09-13T05:51:42.794Z,75617.50
2022-09-13T05:54:12.901Z,75617.50
2022-09-13T05:56:41.238Z,75609.34
2022-09-13T05:59:12.610Z,75593.03
2022-09-13T06:01:40.556Z,75599.13
2022-09-13T06:04:08.413Z,75617.50
2022-09-13T06:06:36.355Z,75609.34
2022-09-13T06:09:06.628Z,75595.06
2022-09-13T06:11:34.417Z,75586.91
2022-09-13T06:14:02.183Z,75576.72
2022-09-13T06:16:30.051Z,75564.47
2022-09-13T06:18:58.944Z,75570.59
2022-09-13T06:21:29.108Z,75568.56
2022-09-13T06:23:57.344Z,75560.41
2022-09-13T06:26:28.400Z,75544.09
2022-09-13T06:28:58.332Z,75542.06
2022-09-13T06:31:28.412Z,75529.84
2022-09-13T06:33:58.626Z,75519.63
2022-09-13T06:36:27.046Z,75507.41
2022-09-13T06:38:54.825Z,75503.34
2022-09-13T06:41:24.978Z,75511.47
2022-09-13T06:43:56.153Z,75523.72
2022-09-13T06:46:25.395Z,75509.44
2022-09-13T06:48:54.001Z,75497.22
2022-09-13T06:51:24.703Z,75499.25
2022-09-13T06:53:55.839Z,75503.34
2022-09-13T06:56:25.323Z,75505.38
2022-09-13T06:58:57.007Z,75507.41
2022-09-13T07:01:26.762Z,75499.25
2022-09-13T07:03:56.563Z,75478.88
2022-09-13T07:06:27.049Z,75468.69
2022-09-13T07:08:56.493Z,75446.25
2022-09-13T07:11:26.289Z,75427.91
2022-09-13T07:13:56.799Z,75399.38
2022-09-13T07:16:27.557Z,75383.06
2022-09-13T07:18:57.069Z,75362.69
2022-09-13T07:21:25.721Z,75332.09
2022-09-13T07:23:54.525Z,75360.66
2022-09-13T07:26:23.212Z,75356.56
2022-09-13T07:28:53.894Z,75342.28
2022-09-13T07:31:24.352Z,75360.66
2022-09-13T07:33:55.348Z,75336.19
2022-09-13T07:36:23.983Z,75307.66
2022-09-13T07:38:52.324Z,75311.72
2022-09-13T07:41:21.479Z,75305.59
2022-09-13T07:43:50.027Z,75299.50
2022-09-13T07:46:19.343Z,75275.03
2022-09-13T07:48:49.539Z,75250.56
2022-09-13T07:51:20.060Z,75238.34
2022-09-13T07:53:50.714Z,75238.34
2022-09-13T07:56:23.582Z,75242.41
2022-09-13T07:58:52.847Z,75240.38
2022-09-13T08:01:23.003Z,75246.50
2022-09-13T08:03:57.033Z,75234.28
2022-09-13T08:06:27.256Z,75224.06
2022-09-13T08:08:55.472Z,75211.84
2022-09-13T08:11:25.040Z,75177.19
2022-09-13T08:13:54.025Z,75169.03
2022-09-13T08:16:23.714Z,75171.09
2022-09-13T08:18:52.916Z,75156.81
2022-09-13T08:21:22.861Z,75140.50
2022-09-13T08:23:51.178Z,75105.84
2022-09-13T08:26:18.965Z,75071.22
2022-09-13T08:28:46.709Z,75046.75
2022-09-13T08:31:20.459Z,75050.81
2022-09-13T08:33:49.401Z,75058.97
2022-09-13T08:36:18.227Z,75038.59
2022-09-13T08:38:48.295Z,75012.09
2022-09-13T08:41:53.422Z,74999.88
2022-09-13T08:44:28.515Z,74997.84
2022-09-13T08:47:03.654Z,74993.75
2022-09-13T08:49:34.858Z,74975.41
2022-09-13T08:52:15.932Z,74953.00
2022-09-13T08:54:45.235Z,74920.38
2022-09-13T08:57:21.568Z,74887.78
2022-09-13T09:00:00.958Z,74851.09
2022-09-13T09:02:53.003Z,74822.56
2022-09-13T09:05:22.732Z,74810.34
2022-09-13T09:07:55.235Z,74802.19
2022-09-13T09:10:29.107Z,74810.34
2022-09-13T09:13:00.085Z,74818.47
2022-09-13T09:15:36.166Z,74826.63
2022-09-13T09:18:07.664Z,74810.34
2022-09-13T09:20:41.354Z,74775.69
2022-09-13T09:23:20.495Z,74749.19
2022-09-13T09:25:52.931Z,74736.97
2022-09-13T09:28:20.834Z,74728.81
2022-09-13T09:30:56.758Z,74720.66
2022-09-13T09:33:50.912Z,74688.06
2022-09-13T09:36:26.186Z,74651.38
2022-09-13T09:38:54.754Z,74616.72
2022-09-13T09:41:28.918Z,74578.00
2022-09-13T09:44:02.842Z,74541.31
2022-09-13T09:46:34.519Z,74504.63
2022-09-13T09:49:29.717Z,74504.63
2022-09-13T09:51:58.357Z,74500.56
2022-09-13T09:54:29.136Z,74498.53
2022-09-13T09:56:58.250Z,74451.66
2022-09-13T09:59:28.531Z,74419.06
2022-09-13T10:01:58.050Z,74427.22
2022-09-13T10:04:26.957Z,74404.78
2022-09-13T10:07:15.668Z,74414.97
2022-09-13T10:09:59.333Z,74402.75
2022-09-13T10:12:30.228Z,74366.06
2022-09-13T10:15:07.938Z,74333.47
2022-09-13T10:17:35.729Z,74364.03
2022-09-13T10:20:21.295Z,74357.91
2022-09-13T10:23:12.121Z,74370.16
2022-09-13T10:25:43.720Z,74366.06
2022-09-13T10:28:20.306Z,74378.28
2022-09-13T10:30:50.901Z,74386.44
2022-09-13T10:33:28.240Z,74378.28
2022-09-13T10:35:58.889Z,74376.25
2022-09-13T10:38:31.865Z,74362.00
2022-09-13T10:41:02.146Z,74337.53
2022-09-13T10:43:33.173Z,74286.59
2022-09-13T10:46:03.716Z,74223.44
2022-09-13T10:48:45.444Z,74174.53
2022-09-13T10:51:31.033Z,74154.16
2022-09-13T10:54:10.988Z,74162.31
2022-09-13T10:56:39.268Z,74205.09
2022-09-13T10:59:33.165Z,74276.41
2022-09-13T11:02:25.209Z,74260.09
2022-09-13T11:05:12.795Z,74213.25
2022-09-13T11:08:06.889Z,74231.59
2022-09-13T11:10:44.741Z,74231.59
2022-09-13T11:13:24.286Z,74237.69
2022-09-13T11:16:01.079Z,74231.59
2022-09-13T11:19:09.632Z,74207.13
2022-09-13T11:21:49.981Z,74223.44
2022-09-13T11:24:40.331Z,74194.91
2022-09-13T11:27:18.218Z,74194.91
2022-09-13T11:30:01.559Z,74174.53
2022-09-13T11:32:47.537Z,74168.41
2022-09-13T11:35:37.256Z,74129.69
2022-09-13T11:38:21.494Z,74101.16
2022-09-13T11:40:59.871Z,74111.34
2022-09-13T11:43:42.945Z,74064.50
2022-09-13T11:46:22.339Z,74027.81
2022-09-13T11:49:10.600Z,74019.66
2022-09-13T11:51:49.028Z,73987.06
2022-09-13T11:54:32.113Z,73974.84
2022-09-13T11:57:03.847Z,74003.38
2022-09-13T11:59:39.787Z,74011.53
2022-09-13T12:02:19.239Z,74054.31
2022-09-13T12:05:20.612Z,74062.47
2022-09-13T12:07:48.041Z,74060.41
2022-09-13T12:10:19.126Z,74013.56
2022-09-13T12:12:50.712Z,74001.34
2022-09-13T12:15:24.180Z,73991.16
2022-09-13T12:17:56.574Z,73978.91
2022-09-13T12:20:34.683Z,73917.78
2022-09-13T12:23:05.957Z,73897.41
2022-09-13T12:25:44.057Z,73879.06
2022-09-13T12:28:19.482Z,73889.28
2022-09-13T12:30:53.650Z,73899.44
2022-09-13T12:33:21.534Z,73856.66
2022-09-13T12:36:02.471Z,73850.56
2022-09-13T12:38:46.550Z,73860.75
2022-09-13T12:41:30.346Z,73901.50
2022-09-13T12:44:20.551Z,73868.91
2022-09-13T12:47:23.598Z,73864.81
2022-09-13T12:50:36.782Z,73877.03
2022-09-13T12:53:11.276Z,73830.19
2022-09-13T12:56:02.424Z,73879.06
2022-09-13T12:58:56.776Z,73889.28
2022-09-13T13:01:26.976Z,73824.06
2022-09-13T13:03:58.343Z,73803.69
2022-09-13T13:06:33.928Z,73771.09
2022-09-13T13:09:07.295Z,73762.94
2022-09-13T13:11:47.775Z,73730.34
2022-09-13T13:14:53.329Z,73771.09
2022-09-13T13:17:46.727Z,73826.09
2022-09-13T13:21:04.935Z,73840.38
2022-09-13T13:23:35.210Z,73830.19
2022-09-13T13:26:10.652Z,73767.03
2022-09-13T13:29:16.477Z,73726.28
2022-09-13T13:32:03.946Z,73758.88
2022-09-13T13:34:46.457Z,73803.69
2022-09-13T13:37:38.471Z,73815.91
2022-09-13T13:40:29.306Z,73852.59
2022-09-13T13:43:18.389Z,73883.16
2022-09-13T13:46:20.292Z,73913.72
2022-09-13T13:51:26.009Z,73950.41
2022-09-13T13:54:01.628Z,73958.53
2022-09-13T13:56:36.337Z,73991.16
2022-09-13T13:59:14.471Z,73987.06
2022-09-13T14:01:47.790Z,73987.06
2022-09-13T14:04:44.672Z,73991.16
2022-09-13T14:07:29.349Z,73995.22
2022-09-13T14:10:06.081Z,74011.53
2022-09-13T14:12:49.273Z,74007.44
2022-09-13T14:15:28.672Z,73999.28
2022-09-13T14:18:20.453Z,74007.44
2022-09-13T14:21:03.143Z,74033.94
2022-09-13T14:23:31.691Z,74033.94
2022-09-13T14:26:01.363Z,74031.91
2022-09-13T14:28:29.642Z,74048.19
2022-09-13T14:31:00.384Z,74070.59
2022-09-13T14:33:32.153Z,74072.66
2022-09-13T14:36:03.223Z,74076.72
2022-09-13T14:38:35.543Z,74088.94
2022-09-13T14:41:14.805Z,74090.97
2022-09-13T14:43:43.691Z,74095.06
2022-09-13T14:46:18.887Z,74103.22
2022-09-13T14:48:51.633Z,74113.41
2022-09-13T14:51:25.275Z,74129.69
2022-09-13T14:53:56.521Z,74146.00
2022-09-13T14:56:31.741Z,74150.06
2022-09-13T14:59:02.256Z,74154.16
2022-09-13T15:01:33.919Z,74158.22
2022-09-13T15:04:04.873Z,74162.31
2022-09-13T15:06:35.035Z,74172.50
2022-09-13T15:09:18.718Z,74178.59
2022-09-13T15:11:59.196Z,74186.75
2022-09-13T15:14:31.074Z,74186.75
2022-09-13T15:17:09.080Z,74190.81
2022-09-13T15:19:40.016Z,74194.91
2022-09-13T15:22:15.805Z,74184.72
2022-09-13T15:24:46.710Z,74196.94
2022-09-13T15:27:20.987Z,74215.28
2022-09-13T15:29:57.212Z,74227.50
2022-09-13T15:32:32.965Z,74223.44
2022-09-13T15:35:02.085Z,74227.50
2022-09-13T15:37:33.218Z,74225.47
2022-09-13T15:40:16.688Z,74231.59
2022-09-13T15:42:49.314Z,74235.66
2022-09-13T15:45:17.946Z,74243.81
2022-09-13T15:47:48.797Z,74243.81
2022-09-13T15:50:26.914Z,74256.03
2022-09-13T15:52:55.332Z,74262.16
2022-09-13T15:55:23.646Z,74266.22
2022-09-13T15:57:51.889Z,74272.34
2022-09-13T16:00:21.615Z,74280.50
2022-09-13T16:02:51.306Z,74280.50
2022-09-13T16:05:19.619Z,74284.56
2022-09-13T16:07:47.709Z,74292.72
2022-09-13T16:10:18.390Z,74294.75
2022-09-13T16:12:46.618Z,74294.75
2022-09-13T16:15:14.727Z,74292.72
2022-09-13T16:17:42.860Z,74300.88
2022-09-13T16:20:15.431Z,74306.97
2022-09-13T16:22:43.481Z,74313.09
2022-09-13T16:25:14.058Z,74311.06
2022-09-13T16:27:42.780Z,74317.16
2022-09-13T16:30:13.845Z,74321.25
2022-09-13T16:32:42.343Z,74321.25
2022-09-13T16:35:11.378Z,74325.31
2022-09-13T16:37:41.261Z,74325.31
2022-09-13T16:40:10.109Z,74333.47
2022-09-13T16:42:39.148Z,74337.53
2022-09-13T16:45:08.161Z,74343.66
2022-09-13T16:47:36.054Z,74341.63
2022-09-13T16:50:03.994Z,74341.63
2022-09-13T16:52:31.804Z,74347.72
2022-09-13T16:55:01.240Z,74357.91
2022-09-13T16:57:29.927Z,74362.00
2022-09-13T16:59:58.831Z,74366.06
2022-09-13T17:02:28.016Z,74366.06
2022-09-13T17:04:56.235Z,74359.97
2022-09-13T17:07:24.005Z,74357.91
2022-09-13T17:09:52.434Z,74351.81
2022-09-13T17:12:21.611Z,74353.84
2022-09-13T17:14:50.675Z,74353.84
2022-09-13T17:17:18.918Z,74364.03
2022-09-13T17:19:46.963Z,74357.91
2022-09-13T17:22:14.768Z,74372.19
2022-09-13T17:24:42.872Z,74366.06
2022-09-13T17:27:10.684Z,74366.06
2022-09-13T17:29:39.857Z,74370.16
2022-09-13T17:32:07.912Z,74382.38
2022-09-13T17:34:35.716Z,74384.41
2022-09-13T17:37:05.763Z,74390.53
2022-09-13T17:39:34.147Z,74390.53
2022-09-13T17:42:02.262Z,74392.56
2022-09-13T17:44:30.191Z,74398.69
2022-09-13T17:46:59.401Z,74400.72
2022-09-13T17:49:27.149Z,74402.75
2022-09-13T17:51:54.928Z,74400.72
2022-09-13T17:54:22.836Z,74402.75
2022-09-13T17:56:51.524Z,74398.69
2022-09-13T17:59:21.132Z,74398.69
2022-09-13T18:01:51.405Z,74402.75
2022-09-13T18:04:22.717Z,74406.81
2022-09-13T18:06:52.470Z,74408.88
2022-09-13T18:09:20.863Z,74412.94
2022-09-13T18:11:48.727Z,74414.97
2022-09-13T18:14:18.318Z,74423.13
2022-09-13T18:16:46.653Z,74425.16
2022-09-13T18:19:14.492Z,74427.22
2022-09-13T18:21:43.663Z,74435.34
2022-09-13T18:24:11.615Z,74439.44
2022-09-13T18:26:39.424Z,74441.47
2022-09-13T18:29:10.735Z,74449.63
2022-09-13T18:31:40.286Z,74447.59
2022-09-13T18:34:11.964Z,74455.72
2022-09-13T18:36:40.745Z,74463.88
2022-09-13T18:39:15.855Z,74467.97
2022-09-13T18:41:45.258Z,74474.06
2022-09-13T18:44:13.686Z,74472.03
2022-09-13T18:46:42.547Z,74476.13
2022-09-13T18:49:11.542Z,74476.13
2022-09-13T18:51:41.269Z,74472.03
2022-09-13T18:54:13.187Z,74476.13
2022-09-13T18:56:41.416Z,74467.97
2022-09-13T18:59:11.015Z,74463.88
2022-09-13T19:01:42.350Z,74463.88
2022-09-13T19:04:13.591Z,74465.91
2022-09-13T19:06:43.063Z,74472.03
2022-09-13T19:09:14.463Z,74463.88
2022-09-13T19:11:48.403Z,74472.03
2022-09-13T19:14:17.633Z,74476.13
2022-09-13T19:16:46.050Z,74488.34
2022-09-13T19:19:13.914Z,74490.38
2022-09-13T19:21:42.646Z,74490.38
2022-09-13T19:24:20.086Z,74500.56
2022-09-13T19:26:50.733Z,74500.56
2022-09-13T19:29:20.725Z,74500.56
2022-09-13T19:31:50.698Z,74496.50
2022-09-13T19:34:20.195Z,74494.44
2022-09-13T19:36:50.623Z,74500.56
2022-09-13T19:39:19.899Z,74498.53
2022-09-13T19:41:47.939Z,74496.50
2022-09-13T19:44:15.923Z,74496.50
2022-09-13T19:46:44.618Z,74490.38
2022-09-13T19:49:14.292Z,74492.41
2022-09-13T19:51:45.529Z,74488.34
2022-09-13T19:54:17.062Z,74496.50
2022-09-13T19:56:46.647Z,74504.63
2022-09-13T19:59:16.191Z,74504.63
2022-09-13T20:01:46.678Z,74508.72
2022-09-13T20:04:17.074Z,74504.63
2022-09-13T20:06:47.402Z,74504.63
2022-09-13T20:09:17.553Z,74504.63
2022-09-13T20:11:48.464Z,74504.63
2022-09-13T20:14:20.303Z,74500.56
2022-09-13T20:16:48.748Z,74504.63
2022-09-13T20:19:39.853Z,74500.56
2022-09-13T20:22:07.272Z,74504.63
2022-09-13T20:24:35.050Z,74504.63
2022-09-13T20:27:04.373Z,74506.69
2022-09-13T20:29:32.456Z,74500.56
2022-09-13T20:32:02.146Z,74508.72
2022-09-13T20:34:29.950Z,74512.78
2022-09-13T20:36:57.739Z,74508.72
2022-09-13T20:39:25.527Z,74516.88
2022-09-13T20:41:54.812Z,74520.94
2022-09-13T20:44:24.018Z,74525.03
2022-09-13T20:46:51.776Z,74529.09
2022-09-13T20:49:19.655Z,74539.28
2022-09-13T20:51:49.325Z,74545.41
2022-09-13T20:54:17.306Z,74549.47
2022-09-13T20:56:46.343Z,74555.59
2022-09-13T20:59:14.292Z,74553.56
2022-09-13T21:01:43.879Z,74547.44
2022-09-13T21:04:11.717Z,74553.56
2022-09-13T21:07:02.701Z,74547.44
2022-09-13T21:09:29.689Z,74545.41
2022-09-13T21:11:57.486Z,74541.31
2022-09-13T21:14:25.349Z,74549.47
2022-09-13T21:16:56.810Z,74547.44
2022-09-13T21:19:24.828Z,74549.47
2022-09-13T21:21:52.584Z,74545.41
2022-09-13T21:24:20.352Z,74545.41
2022-09-13T21:26:48.222Z,74541.31
2022-09-13T21:29:16.117Z,74537.25
2022-09-13T21:31:43.869Z,74541.31
2022-09-13T21:34:16.462Z,74541.31
2022-09-13T21:36:45.246Z,74549.47
2022-09-13T21:39:13.565Z,74545.41
2022-09-13T21:41:42.148Z,74549.47
2022-09-13T21:44:10.320Z,74549.47
2022-09-13T21:46:39.634Z,74549.47
2022-09-13T21:49:09.141Z,74551.50
2022-09-13T21:51:40.025Z,74549.47
2022-09-13T21:54:09.468Z,74553.56
2022-09-13T21:56:39.796Z,74557.63
2022-09-13T21:59:09.600Z,74547.44
2022-09-13T22:01:39.704Z,74541.31
2022-09-13T22:04:08.746Z,74541.31
2022-09-13T22:06:38.485Z,74541.31
2022-09-13T22:09:08.905Z,74537.25
2022-09-13T22:11:39.226Z,74539.28
2022-09-13T22:14:09.389Z,74535.22
2022-09-13T22:16:38.943Z,74525.03
2022-09-13T22:19:09.632Z,74533.16
2022-09-13T22:21:40.651Z,74537.25
2022-09-13T22:24:10.054Z,74537.25
2022-09-13T22:26:40.634Z,74539.28
2022-09-13T22:29:09.771Z,74537.25
2022-09-13T22:31:39.964Z,74535.22
2022-09-13T22:34:09.379Z,74535.22
2022-09-13T22:36:38.966Z,74537.25
2022-09-13T22:39:06.843Z,74533.16
2022-09-13T22:41:35.633Z,74535.22
2022-09-13T22:44:04.490Z,74537.25
2022-09-13T22:46:33.942Z,74539.28
2022-09-13T22:49:02.365Z,74543.34
2022-09-13T22:51:30.728Z,74541.31
2022-09-13T22:54:04.837Z,74541.31
2022-09-13T22:56:36.337Z,74541.31
2022-09-13T22:59:07.106Z,74539.28
2022-09-13T23:01:35.292Z,74537.25
2022-09-13T23:04:03.994Z,74529.09
2022-09-13T23:06:32.565Z,74533.16
2022-09-13T23:09:04.537Z,74535.22
2022-09-13T23:11:34.165Z,74541.31
2022-09-13T23:14:04.996Z,74551.50
2022-09-13T23:16:34.337Z,74557.63
2022-09-13T23:19:02.216Z,74569.84
2022-09-13T23:21:32.321Z,74571.91
2022-09-13T23:24:03.077Z,74573.94
2022-09-13T23:26:31.296Z,74578.00
2022-09-13T23:29:00.818Z,74569.84
2022-09-13T23:31:30.766Z,74563.75
2022-09-13T23:34:01.612Z,74569.84
2022-09-13T23:36:31.593Z,74575.97
2022-09-13T23:39:03.235Z,74575.97
2022-09-13T23:41:31.824Z,74578.00
2022-09-13T23:43:59.822Z,74582.09
2022-09-13T23:46:27.707Z,74590.22
2022-09-13T23:48:55.677Z,74596.34
2022-09-13T23:51:24.918Z,74584.13
2022-09-13T23:53:56.595Z,74586.16
2022-09-13T23:56:26.665Z,74592.28
2022-09-13T23:58:55.791Z,74598.38
